Time;durP1;ratioP1;P1;durP2;ratioP2;P2;SDS_P1;SDS_P2;PMS_P1;PMS_P2;Temp;Humidity;BMP_temperature;BMP_pressure;BME280_temperature;BME280_humidity;BME280_pressure;Samples;Min_cycle;Max_cycle;Signal;HPM_P1;HPM_P2
2023/12/24 00:00:07;;;;;;;13.32;2.40;;;;;;;-146.27;80.65;32398.63;5067540;28;20093;-70
2023/12/24 00:02:32;;;;;;;9.07;1.42;;;;;;;-146.27;81.90;32406.56;5059659;28;20435;-70
2023/12/24 00:04:57;;;;;;;15.93;1.92;;;;;;;-146.27;80.69;32386.72;5063027;28;20073;-69
2023/12/24 00:07:23;;;;;;;8.55;1.38;;;;;;;-146.27;81.65;32499.81;5060987;28;20112;-68
2023/12/24 00:09:48;;;;;;;17.02;2.38;;;;;;;-146.27;80.11;32327.22;5070089;28;20487;-70
2023/12/24 00:12:13;;;;;;;10.57;1.83;;;;;;;-146.27;81.70;32398.63;5061980;28;20052;-70
2023/12/24 00:14:39;;;;;;;7.03;1.25;;;;;;;-146.27;81.02;32351.03;5063421;28;20094;-70
2023/12/24 00:17:04;;;;;;;12.77;2.08;;;;;;;-146.27;80.78;32311.34;5063971;28;20497;-70
2023/12/24 00:19:29;;;;;;;13.85;2.15;;;;;;;-146.27;80.53;32358.97;5060348;28;20031;-70
2023/12/24 00:21:55;;;;;;;10.05;1.90;;;;;;;-146.27;80.97;32398.63;5052347;28;20120;-70
2023/12/24 00:24:20;;;;;;;15.65;2.42;;;;;;;-146.27;81.20;32382.75;5060768;28;20546;-70
2023/12/24 00:26:45;;;;;;;14.27;2.08;;;;;;;-146.27;80.09;32299.44;5063098;28;20469;-70
2023/12/24 00:29:11;;;;;;;11.73;2.13;;;;;;;-146.27;81.64;32472.03;5074234;28;20021;-70
2023/12/24 00:31:37;;;;;;;7.38;1.23;;;;;;;-146.27;82.22;32509.72;5067838;28;20099;-70
2023/12/24 00:34:02;;;;;;;11.15;1.75;;;;;;;-146.27;80.85;32343.09;5068030;28;20030;-71
2023/12/24 00:36:27;;;;;;;11.00;1.73;;;;;;;-146.27;80.98;32347.06;5053260;28;20021;-70
2023/12/24 00:38:53;;;;;;;17.75;2.25;;;;;;;-146.27;80.60;32307.38;5061164;28;20028;-69
2023/12/24 00:41:18;;;;;;;16.30;2.60;;;;;;;-146.27;81.62;32349.03;5070893;28;20019;-71
2023/12/24 00:43:45;;;;;;;12.15;1.98;;;;;;;-146.27;82.70;32392.69;5070521;28;20028;-70
2023/12/24 00:46:17;;;;;;;12.77;1.95;;;;;;;-146.27;84.44;32505.75;5061555;28;20039;-70
2023/12/24 00:48:42;;;;;;;10.80;2.03;;;;;;;-146.27;85.32;32569.22;5069227;28;20107;-70
2023/12/24 00:51:08;;;;;;;17.83;2.00;;;;;;;-146.27;85.48;32571.22;5053511;28;20119;-69
2023/12/24 00:53:33;;;;;;;26.35;2.35;;;;;;;-146.27;85.93;32521.63;5054971;28;20464;-70
2023/12/24 00:55:58;;;;;;;16.08;2.38;;;;;;;-146.27;87.29;32581.13;5067255;28;20136;-69
2023/12/24 00:58:26;;;;;;;21.27;2.05;;;;;;;-146.27;88.00;32547.41;5058320;28;20044;-70
2023/12/24 01:00:51;;;;;;;19.45;2.60;;;;;;;-146.27;88.02;32577.16;5068415;28;20396;-70
2023/12/24 01:03:16;;;;;;;15.13;1.92;;;;;;;-146.27;89.45;32662.47;5067070;28;20025;-70
2023/12/24 01:05:42;;;;;;;10.10;1.70;;;;;;;-146.27;89.07;32569.22;5067906;28;20067;-70
2023/12/24 01:08:07;;;;;;;13.77;2.13;;;;;;;-146.27;89.62;32561.28;5067098;28;20392;-70
2023/12/24 01:10:32;;;;;;;16.08;2.33;;;;;;;-146.27;89.21;32557.31;5076397;28;20551;-69
2023/12/24 01:12:58;;;;;;;17.30;2.67;;;;;;;-146.27;89.92;32581.13;5050749;28;20075;-68
2023/12/24 01:15:23;;;;;;;15.10;1.98;;;;;;;-146.27;90.17;32569.22;5067979;28;20028;-68
2023/12/24 01:17:49;;;;;;;9.05;2.75;;;;;;;-146.27;90.73;32646.59;5053566;28;20020;-68
2023/12/24 01:20:15;;;;;;;18.60;2.35;;;;;;;-146.27;90.50;32593.03;5063783;28;20029;-68
2023/12/24 01:22:41;;;;;;;17.40;2.47;;;;;;;-146.27;91.40;32676.34;5062989;28;20547;-69
2023/12/24 01:25:07;;;;;;;18.25;2.90;;;;;;;-146.27;90.99;32549.38;5063406;28;20035;-70
2023/12/24 01:27:32;;;;;;;13.75;2.20;;;;;;;-146.27;91.87;32604.94;5063306;28;20029;-70
2023/12/24 01:29:58;;;;;;;12.52;2.58;;;;;;;-146.27;91.72;32618.81;5069229;28;20032;-69
2023/12/24 01:32:23;;;;;;;25.85;3.08;;;;;;;-146.27;92.04;32624.78;5059723;28;20512;-68
2023/12/24 01:34:48;;;;;;;24.77;3.00;;;;;;;-146.27;93.22;32725.94;5066558;28;20477;-69
2023/12/24 01:37:14;;;;;;;28.70;4.00;;;;;;;-146.27;92.82;32672.38;5066421;28;20024;-69
2023/12/24 01:39:39;;;;;;;20.15;2.95;;;;;;;-146.27;93.65;32660.47;5075585;28;20028;-69
2023/12/24 01:42:04;;;;;;;20.35;2.67;;;;;;;-146.27;93.21;32602.94;5070899;28;20488;-69
2023/12/24 01:44:30;;;;;;;19.80;3.88;;;;;;;-146.27;93.56;32610.88;5076284;28;20042;-69
2023/12/24 01:46:56;;;;;;;20.63;3.25;;;;;;;-146.27;94.72;32686.28;5064994;28;20036;-69
2023/12/24 01:49:21;;;;;;;11.23;3.00;;;;;;;-146.27;93.79;32660.47;5059027;28;20092;-69
2023/12/24 01:51:47;;;;;;;20.70;3.17;;;;;;;-146.27;94.23;32644.63;5062058;28;20332;-69
2023/12/24 01:54:13;;;;;;;22.23;2.85;;;;;;;-146.27;94.72;32696.19;5058656;28;20048;-69
2023/12/24 01:56:39;;;;;;;23.00;3.60;;;;;;;-146.27;94.27;32608.91;5061860;28;20065;-70
2023/12/24 01:59:09;;;;;;;17.15;2.88;;;;;;;-146.27;94.56;32581.13;5056143;28;20031;-69
2023/12/24 02:01:35;;;;;;;18.45;2.80;;;;;;;-146.27;95.57;32650.56;5058884;28;20368;-69
2023/12/24 02:04:01;;;;;;;22.17;4.20;;;;;;;-146.27;95.40;32571.22;5064791;28;20032;-69
2023/12/24 02:06:26;;;;;;;23.85;3.42;;;;;;;-146.27;95.15;32549.38;5056802;28;20549;-69
2023/12/24 02:08:52;;;;;;;26.92;3.38;;;;;;;-146.27;94.30;32440.28;5061184;28;20236;-69
2023/12/24 02:11:17;;;;;;;23.92;3.50;;;;;;;-146.27;94.52;32593.03;5063421;28;20040;-70
2023/12/24 02:13:44;;;;;;;11.27;2.92;;;;;;;-146.27;94.36;32533.53;5061126;28;20388;-69
2023/12/24 02:16:11;;;;;;;29.92;4.57;;;;;;;-146.27;95.06;32608.91;5064958;28;20016;-69
2023/12/24 02:18:38;;;;;;;22.50;3.60;;;;;;;-146.27;95.42;32589.06;5064815;28;20388;-69
2023/12/24 02:21:04;;;;;;;13.85;3.17;;;;;;;-146.27;96.65;32648.56;5065648;28;20080;-69
2023/12/24 02:23:30;;;;;;;12.82;2.53;;;;;;;-146.27;96.49;32620.81;5068133;28;20032;-69
2023/12/24 02:26:11;;;;;;;16.55;3.30;;;;;;;-146.27;95.91;32493.84;5075232;28;20077;-69
2023/12/24 02:28:41;;;;;;;5.72;2.45;;;;;;;-146.27;96.65;32684.28;5064373;28;20028;-69
2023/12/24 02:31:10;;;;;;;11.20;2.30;;;;;;;-146.27;96.97;32600.97;5057887;28;20392;-70
2023/12/24 02:33:41;;;;;;;9.85;2.80;;;;;;;-146.27;96.81;32656.50;5069249;28;20077;-70
2023/12/24 02:36:09;;;;;;;15.20;2.95;;;;;;;-146.27;96.98;32622.78;5067302;28;20040;-69
2023/12/24 02:38:34;;;;;;;12.57;3.00;;;;;;;-146.27;97.24;32606.91;5067753;28;20477;-70
2023/12/24 02:40:59;;;;;;;9.63;2.20;;;;;;;-146.27;96.72;32571.22;5069920;28;20035;-69
2023/12/24 02:43:25;;;;;;;12.30;2.78;;;;;;;-146.27;96.19;32545.44;5067310;28;20458;-70
2023/12/24 02:45:50;;;;;;;8.52;1.98;;;;;;;-146.27;96.96;32612.88;5064893;28;20496;-69
2023/12/24 02:48:15;;;;;;;10.95;2.53;;;;;;;-146.27;97.75;32604.94;5067609;28;20561;-70
2023/12/24 02:50:41;;;;;;;8.05;2.33;;;;;;;-146.27;96.70;32583.13;5069337;28;20384;-70
2023/12/24 02:53:06;;;;;;;11.88;2.53;;;;;;;-146.27;98.28;32644.63;5075808;28;20048;-70
2023/12/24 02:55:32;;;;;;;7.78;3.15;;;;;;;-146.27;97.44;32565.25;5088839;28;20530;-70
2023/12/24 02:57:58;;;;;;;9.63;2.20;;;;;;;-146.27;97.62;32626.75;5068769;28;20032;-70
2023/12/24 03:00:23;;;;;;;14.45;2.70;;;;;;;-146.27;96.62;32474.00;5063851;28;20028;-70
2023/12/24 03:02:48;;;;;;;21.95;5.47;;;;;;;-146.27;96.06;32513.69;5067178;28;20119;-70
2023/12/24 03:05:14;;;;;;;16.35;4.20;;;;;;;-146.27;96.63;32416.47;5067400;28;20158;-70
2023/12/24 03:07:39;;;;;;;16.50;2.90;;;;;;;-146.27;97.29;32593.03;5067604;28;20115;-70
2023/12/24 03:10:05;;;;;;;23.50;4.82;;;;;;;-146.27;98.22;32600.97;5067825;28;20404;-70
2023/12/24 03:12:30;;;;;;;12.05;3.55;;;;;;;-146.27;96.83;32462.09;5066252;28;20403;-69
2023/12/24 03:14:56;;;;;;;11.55;2.75;;;;;;;-146.27;97.54;32551.38;5068457;28;20539;-70
2023/12/24 03:17:21;;;;;;;9.93;2.78;;;;;;;-146.27;97.38;32561.28;5065652;28;20016;-70
2023/12/24 03:19:47;;;;;;;15.82;3.08;;;;;;;-146.27;97.98;32479.97;5080668;28;20056;-71
2023/12/24 03:22:12;;;;;;;15.10;3.55;;;;;;;-146.27;96.41;32343.09;5060905;28;20487;-72
2023/12/24 03:24:37;;;;;;;19.63;3.13;;;;;;;-146.27;96.52;32483.94;5065766;28;20129;-70
2023/12/24 03:27:03;;;;;;;12.02;2.92;;;;;;;-146.27;96.54;32487.91;5067312;28;20017;-70
2023/12/24 03:29:28;;;;;;;13.55;3.10;;;;;;;-146.27;97.04;32466.06;5078531;28;20488;-70
2023/12/24 03:31:54;;;;;;;15.23;3.35;;;;;;;-146.27;97.30;32410.53;5062783;28;20028;-70
2023/12/24 03:34:19;;;;;;;20.63;4.43;;;;;;;-146.27;97.54;32511.69;5056624;28;20025;-70
2023/12/24 03:36:45;;;;;;;14.77;3.42;;;;;;;-146.27;97.41;32462.09;5061857;28;20040;-70
2023/12/24 03:39:10;;;;;;;22.92;4.25;;;;;;;-146.27;97.13;32448.22;5058521;28;20397;-70
2023/12/24 03:41:35;;;;;;;14.88;3.15;;;;;;;-146.27;98.24;32505.75;5062991;28;20472;-70
2023/12/24 03:44:03;;;;;;;15.55;3.55;;;;;;;-146.27;97.66;32392.69;5071743;28;20033;-69
2023/12/24 03:46:28;;;;;;;16.90;3.20;;;;;;;-146.27;97.57;32458.13;5067434;28;20020;-69
2023/12/24 03:48:53;;;;;;;16.33;2.95;;;;;;;-146.27;97.13;32378.78;5069699;28;20503;-70
2023/12/24 03:51:20;;;;;;;20.48;3.72;;;;;;;-146.27;97.43;32477.97;5064460;28;20033;-70
2023/12/24 03:53:45;;;;;;;17.13;3.38;;;;;;;-146.27;97.15;32462.09;5065177;28;20017;-70
2023/12/24 03:56:10;;;;;;;17.88;3.35;;;;;;;-146.27;98.32;32460.13;5066108;28;20024;-70
2023/12/24 03:58:39;;;;;;;19.42;4.47;;;;;;;-146.27;97.57;32432.34;5065378;28;20398;-70
2023/12/24 04:01:08;;;;;;;15.82;2.92;;;;;;;-146.27;97.32;32432.34;5069641;28;20119;-70
2023/12/24 04:03:34;;;;;;;18.58;3.42;;;;;;;-146.27;97.25;32414.50;5055002;28;20017;-70
2023/12/24 04:05:59;;;;;;;31.63;4.72;;;;;;;-146.27;98.00;32426.41;5053322;28;20029;-70
2023/12/24 04:08:25;;;;;;;15.63;3.67;;;;;;;-146.27;98.44;32456.16;5063784;28;20044;-70
2023/12/24 04:10:50;;;;;;;16.13;3.00;;;;;;;-146.27;97.94;32416.47;5052763;28;20387;-71
2023/12/24 04:13:15;;;;;;;12.50;4.03;;;;;;;-146.27;97.48;32414.50;5070575;28;20549;-71
2023/12/24 04:15:41;;;;;;;11.00;2.40;;;;;;;-146.27;97.04;32364.91;5070789;28;20554;-71
2023/12/24 04:18:06;;;;;;;15.30;2.80;;;;;;;-146.27;97.00;32366.91;5060633;28;20558;-70
2023/12/24 04:20:31;;;;;;;20.40;3.67;;;;;;;-146.27;96.20;32267.72;5070628;28;20384;-70
2023/12/24 04:22:57;;;;;;;18.33;2.60;;;;;;;-146.27;98.18;32509.72;5069945;28;20028;-71
2023/12/24 04:25:22;;;;;;;18.42;2.28;;;;;;;-146.27;99.27;32497.81;5066934;28;20056;-70
2023/12/24 04:27:47;;;;;;;22.15;2.88;;;;;;;-146.27;97.61;32353.00;5078486;28;20024;-70
2023/12/24 04:30:13;;;;;;;18.83;2.47;;;;;;;-146.27;97.11;32279.63;5071300;28;20032;-69
2023/12/24 04:32:38;;;;;;;22.00;3.38;;;;;;;-146.27;97.72;32418.47;5055377;28;20016;-70
2023/12/24 04:35:06;;;;;;;27.27;3.58;;;;;;;-146.27;97.72;32303.41;5068301;28;20561;-70
2023/12/24 04:37:31;;;;;;;22.40;2.97;;;;;;;-146.27;97.36;32335.16;5079502;28;20056;-70
2023/12/24 04:39:56;;;;;;;19.30;2.88;;;;;;;-146.27;97.88;32460.13;5065757;28;20515;-71
2023/12/24 04:42:22;;;;;;;29.48;4.68;;;;;;;-146.27;97.77;32372.84;5062522;28;20024;-71
2023/12/24 04:44:47;;;;;;;27.55;3.38;;;;;;;-146.27;97.78;32355.00;5072246;28;20468;-70
2023/12/24 04:47:12;;;;;;;24.98;4.28;;;;;;;-146.27;97.63;32418.47;5069811;28;20029;-71
2023/12/24 04:49:38;;;;;;;18.33;3.88;;;;;;;-146.27;98.02;32404.59;5070730;28;20028;-71
2023/12/24 04:52:03;;;;;;;24.42;3.38;;;;;;;-146.27;97.98;32299.44;5057080;28;20075;-71
2023/12/24 04:54:29;;;;;;;32.78;4.10;;;;;;;-146.27;98.28;32388.72;5067002;28;20044;-70
2023/12/24 04:56:54;;;;;;;34.97;4.70;;;;;;;-146.27;98.78;32406.56;5067382;28;20061;-71
2023/12/24 04:59:20;;;;;;;33.85;4.10;;;;;;;-146.27;98.12;32339.13;5060647;28;20036;-71
2023/12/24 05:01:46;;;;;;;37.55;4.65;;;;;;;-146.27;97.44;32212.16;5080418;28;20035;-71
2023/12/24 05:04:11;;;;;;;31.45;5.55;;;;;;;-146.27;98.18;32331.19;5060616;28;20056;-71
2023/12/24 05:06:36;;;;;;;27.25;4.80;;;;;;;-146.27;97.62;32228.03;5069541;28;20070;-71
2023/12/24 05:09:02;;;;;;;39.65;4.65;;;;;;;-146.27;96.38;32148.69;5065961;28;20024;-71
2023/12/24 05:11:27;;;;;;;24.13;4.65;;;;;;;-146.27;97.52;32259.78;5052370;28;20035;-71
2023/12/24 05:13:53;;;;;;;35.53;3.90;;;;;;;-146.27;97.13;32257.78;5064421;28;20028;-70
2023/12/24 05:16:18;;;;;;;42.45;5.60;;;;;;;-146.27;97.77;32220.09;5071819;28;20024;-70
2023/12/24 05:18:44;;;;;;;34.13;5.00;;;;;;;-146.27;97.57;32204.25;5088630;28;20028;-71
2023/12/24 05:21:09;;;;;;;32.15;4.13;;;;;;;-146.27;97.81;32279.63;5068985;28;20024;-71
2023/12/24 05:23:34;;;;;;;29.60;4.30;;;;;;;-146.27;97.38;32263.75;5068995;28;20484;-71
2023/12/24 05:26:00;;;;;;;34.17;4.68;;;;;;;-146.27;98.37;32384.75;5060629;28;20024;-71
2023/12/24 05:28:25;;;;;;;38.22;4.13;;;;;;;-146.27;97.90;32212.16;5068797;28;20031;-71
2023/12/24 05:30:51;;;;;;;38.30;4.72;;;;;;;-146.27;97.78;32192.34;5061035;28;20592;-71
2023/12/24 05:33:16;;;;;;;21.33;3.53;;;;;;;-146.27;97.35;32251.84;5064646;28;20036;-70
2023/12/24 05:35:41;;;;;;;33.83;4.63;;;;;;;-146.27;97.36;32261.75;5050351;28;20499;-71
2023/12/24 05:38:07;;;;;;;41.80;4.78;;;;;;;-146.27;98.00;32259.78;5089702;28;20028;-73
2023/12/24 05:40:32;;;;;;;37.35;4.32;;;;;;;-146.27;96.69;32156.63;5069613;28;20044;-71
2023/12/24 05:42:57;;;;;;;35.33;4.63;;;;;;;-146.27;96.68;32162.59;5063023;28;20537;-71
2023/12/24 05:45:24;;;;;;;35.72;4.72;;;;;;;-146.27;96.04;32160.59;5055896;28;20056;-71
2023/12/24 05:47:49;;;;;;;30.20;3.45;;;;;;;-146.27;95.79;32095.16;5075037;28;20028;-71
2023/12/24 05:50:15;;;;;;;30.98;4.45;;;;;;;-146.27;96.71;32245.91;5068327;28;20388;-71
2023/12/24 05:52:41;;;;;;;33.92;3.72;;;;;;;-146.27;97.38;32249.84;5062787;28;20033;-71
2023/12/24 05:55:07;;;;;;;36.92;4.40;;;;;;;-146.27;97.93;32295.47;5069418;28;20131;-70
2023/12/24 05:57:33;;;;;;;27.00;3.25;;;;;;;-146.27;98.52;32291.50;5064141;28;20055;-70
2023/12/24 05:59:58;;;;;;;26.83;3.72;;;;;;;-146.27;97.44;32164.56;5064850;28;20074;-70
2023/12/24 06:02:23;;;;;;;24.48;3.65;;;;;;;-146.27;97.86;32319.28;5066879;28;20031;-70
2023/12/24 06:04:49;;;;;;;25.98;4.43;;;;;;;-146.27;97.72;32172.50;5070218;28;20107;-70
2023/12/24 06:07:14;;;;;;;41.47;3.83;;;;;;;-146.27;96.67;32101.09;5068719;28;20035;-70
2023/12/24 06:09:39;;;;;;;25.25;4.25;;;;;;;-146.27;97.19;32190.34;5067313;28;20029;-71
2023/12/24 06:12:06;;;;;;;22.48;2.97;;;;;;;-146.27;96.28;32136.78;5065249;28;20025;-70
2023/12/24 06:14:31;;;;;;;18.38;2.55;;;;;;;-146.27;96.20;32156.63;5068725;28;20071;-71
2023/12/24 06:16:57;;;;;;;23.90;3.13;;;;;;;-146.27;96.71;32172.50;5062861;28;20055;-71
2023/12/24 06:19:22;;;;;;;27.08;3.47;;;;;;;-146.27;96.46;32124.91;5071268;28;20608;-71
2023/12/24 06:21:47;;;;;;;24.27;4.03;;;;;;;-146.27;96.39;32122.91;5055449;28;20443;-71
2023/12/24 06:24:13;;;;;;;28.52;3.60;;;;;;;-146.27;96.53;32144.72;5064802;28;20036;-71
2023/12/24 06:26:38;;;;;;;20.63;3.72;;;;;;;-146.27;96.52;32192.34;5056753;28;20029;-70
2023/12/24 06:29:03;;;;;;;25.02;4.18;;;;;;;-146.27;95.85;32049.53;5078851;28;20028;-72
2023/12/24 06:31:29;;;;;;;22.95;3.75;;;;;;;-146.27;96.16;32101.09;5067417;28;20496;-72
2023/12/24 06:33:54;;;;;;;26.98;3.03;;;;;;;-146.27;95.13;32003.91;5056132;28;20429;-72
2023/12/24 06:36:19;;;;;;;17.80;2.83;;;;;;;-146.27;94.83;32051.50;5057899;28;20093;-73
2023/12/24 06:38:45;;;;;;;17.35;2.15;;;;;;;-146.27;95.24;32085.22;5068923;28;20419;-72
2023/12/24 06:41:10;;;;;;;22.75;2.90;;;;;;;-146.27;95.03;31997.94;5067814;28;20028;-72
2023/12/24 06:43:37;;;;;;;30.92;3.33;;;;;;;-146.27;94.60;31986.06;5068251;28;20024;-73
2023/12/24 06:46:02;;;;;;;19.90;3.20;;;;;;;-146.27;94.91;32069.34;5067194;28;20031;-71
2023/12/24 06:48:28;;;;;;;23.00;2.92;;;;;;;-146.27;94.84;32037.63;5062922;28;20028;-71
2023/12/24 06:50:53;;;;;;;16.95;3.08;;;;;;;-146.27;94.89;32025.72;5068943;28;20037;-71
2023/12/24 06:53:18;;;;;;;23.83;3.63;;;;;;;-146.27;95.00;32049.53;5068214;28;20082;-71
2023/12/24 06:55:44;;;;;;;22.77;2.90;;;;;;;-146.27;94.16;31966.22;5066697;28;20136;-71
2023/12/24 06:58:09;;;;;;;19.35;3.25;;;;;;;-146.27;94.05;32001.91;5066921;28;20112;-72
2023/12/24 07:00:35;;;;;;;25.98;4.30;;;;;;;-146.27;94.44;31988.03;5065438;28;20040;-71
2023/12/24 07:03:00;;;;;;;22.60;4.00;;;;;;;-146.27;94.70;32057.47;5070392;28;20396;-70
2023/12/24 07:05:27;;;;;;;24.23;3.97;;;;;;;-146.27;94.20;31970.19;5060909;28;20036;-71
2023/12/24 07:07:53;;;;;;;29.30;3.05;;;;;;;-146.27;94.05;32033.66;5067748;28;20091;-71
2023/12/24 07:10:19;;;;;;;31.08;3.63;;;;;;;-146.27;94.04;31982.09;5062131;28;20024;-71
2023/12/24 07:12:44;;;;;;;16.08;3.15;;;;;;;-146.27;93.31;31849.19;5074750;28;20048;-70
2023/12/24 07:15:10;;;;;;;21.98;3.78;;;;;;;-146.27;94.56;32077.28;5078528;28;20586;-71
2023/12/24 07:17:35;;;;;;;21.63;3.20;;;;;;;-146.27;94.55;32081.25;5061704;28;20025;-71
2023/12/24 07:20:00;;;;;;;21.02;3.08;;;;;;;-146.27;94.21;31974.16;5072715;28;20498;-70
2023/12/24 07:22:26;;;;;;;16.30;2.47;;;;;;;-146.27;94.34;31974.16;5070762;28;20107;-71
2023/12/24 07:24:51;;;;;;;25.15;3.95;;;;;;;-146.27;93.11;31944.41;5073289;28;20029;-71
2023/12/24 07:27:16;;;;;;;26.48;3.35;;;;;;;-146.27;94.08;31942.41;5070696;28;20032;-73
2023/12/24 07:29:42;;;;;;;24.58;4.45;;;;;;;-146.27;93.73;31930.50;5080149;28;20112;-70
2023/12/24 07:32:08;;;;;;;17.20;3.85;;;;;;;-146.27;93.89;31922.59;5069299;28;20067;-70
2023/12/24 07:34:33;;;;;;;15.85;3.15;;;;;;;-146.27;95.58;32053.50;5067006;28;20503;-71
2023/12/24 07:36:59;;;;;;;22.88;3.80;;;;;;;-146.27;94.46;31918.63;5074507;28;20024;-70
2023/12/24 07:39:25;;;;;;;18.27;3.85;;;;;;;-146.27;95.47;32001.91;5069969;28;20392;-69
2023/12/24 07:41:50;;;;;;;16.83;2.33;;;;;;;-146.27;94.54;31970.19;5073808;28;20040;-71
2023/12/24 07:44:16;;;;;;;17.20;3.22;;;;;;;-146.27;93.66;31912.66;5066728;28;20052;-71
2023/12/24 07:46:44;;;;;;;18.67;3.17;;;;;;;-146.27;94.61;31970.19;5063515;28;20020;-70
2023/12/24 07:49:09;;;;;;;24.95;3.33;;;;;;;-146.27;95.73;32049.53;5069071;28;20115;-73
2023/12/24 07:51:35;;;;;;;18.10;3.55;;;;;;;-146.27;96.16;32144.72;5078650;28;20100;-72
2023/12/24 07:54:03;;;;;;;22.20;4.60;;;;;;;-146.27;97.99;32271.69;5056304;28;20068;-71
2023/12/24 07:56:28;;;;;;;20.80;3.90;;;;;;;-146.27;97.35;32128.88;5052765;28;20095;-70
2023/12/24 07:58:54;;;;;;;32.45;4.32;;;;;;;-146.27;97.53;32126.88;5061892;28;20124;-72
2023/12/24 08:01:19;;;;;;;28.83;5.25;;;;;;;-146.27;97.22;32103.06;5062345;28;20451;-70
2023/12/24 08:03:44;;;;;;;27.92;5.45;;;;;;;-146.27;97.22;32103.06;5066675;28;20027;-71
2023/12/24 08:06:10;;;;;;;42.80;5.97;;;;;;;-146.27;95.66;31956.31;5086522;28;20028;-70
2023/12/24 08:08:35;;;;;;;44.42;7.47;;;;;;;-146.27;100.00;58461.47;5077100;28;20020;-71
2023/12/24 08:11:02;;;;;;;42.47;6.65;;;;;;;-146.27;100.00;58461.47;5069890;28;20029;-71
2023/12/24 08:13:27;;;;;;;45.33;5.90;;;;;;;-146.27;100.00;58461.47;5060762;28;20089;-70
2023/12/24 08:15:52;;;;;;;54.20;7.30;;;;;;;-146.27;100.00;58461.47;5074121;28;20020;-70
2023/12/24 08:18:18;;;;;;;43.40;6.28;;;;;;;-146.27;100.00;58461.47;5082102;28;20032;-70
2023/12/24 08:20:47;;;;;;;35.67;6.30;;;;;;;-146.27;100.00;58461.47;5069105;28;20101;-69
2023/12/24 08:23:19;;;;;;;38.78;5.32;;;;;;;-146.27;95.66;31956.31;5072341;28;20035;-70
2023/12/24 08:26:39;;;;;;;24.48;5.68;;;;;;;-146.27;nan;58461.47;5066923;28;20025;-70
2023/12/24 08:29:34;;;;;;;30.05;6.22;;;;;;;-146.27;95.66;31956.31;5070951;28;20488;-71
2023/12/24 08:32:07;;;;;;;33.42;5.57;;;;;;;-146.27;100.00;58461.47;5069777;28;20472;-70
2023/12/24 08:34:33;;;;;;;31.65;7.10;;;;;;;-98.85;95.66;31956.31;5067256;28;20523;-71
2023/12/24 08:36:59;;;;;;;43.90;6.63;;;;;;;-146.27;100.00;58461.47;5076421;28;20640;-71
2023/12/24 08:39:28;;;;;;;36.38;6.50;;;;;;;-146.27;95.66;31956.31;5066891;28;20082;-71
2023/12/24 08:41:53;;;;;;;34.28;5.82;;;;;;;-146.27;100.00;58461.47;5067258;28;20040;-71
2023/12/24 08:44:25;;;;;;;24.73;6.28;;;;;;;-146.27;100.00;58461.47;5077115;28;22294;-71
2023/12/24 08:46:50;;;;;;;39.15;5.60;;;;;;;-146.27;100.00;58461.47;5068586;28;20087;-71
2023/12/24 08:49:36;;;;;;;32.88;5.03;;;;;;;-146.27;100.00;58461.47;5071491;28;20037;-70
2023/12/24 08:52:21;;;;;;;37.13;5.57;;;;;;;-146.27;100.00;58461.47;5069416;28;20036;-70
2023/12/24 08:55:07;;;;;;;39.78;7.88;;;;;;;-146.27;100.00;58461.47;5068553;28;20094;-71
2023/12/24 08:57:53;;;;;;;43.90;6.82;;;;;;;-146.27;100.00;58461.47;5068412;28;20446;-71
2023/12/24 09:00:19;;;;;;;30.48;6.25;;;;;;;-146.27;100.00;58461.47;5067542;28;20031;-72
2023/12/24 09:02:51;;;;;;;33.40;5.97;;;;;;;-146.27;100.00;58461.47;5067744;28;20028;-71
2023/12/24 09:05:38;;;;;;;41.85;8.30;;;;;;;-146.27;100.00;58461.47;5072005;28;20025;-71
2023/12/24 09:08:27;;;;;;;26.35;5.50;;;;;;;-146.27;100.00;58461.47;5070614;28;20067;-72
2023/12/24 09:11:50;;;;;;;39.88;6.78;;;;;;;-146.27;100.00;58461.47;5072340;28;20159;-71
2023/12/24 09:15:14;;;;;;;30.45;7.55;;;;;;;-146.27;100.00;58461.47;5065946;28;20032;-70
2023/12/24 09:18:38;;;;;;;28.30;5.32;;;;;;;-146.27;100.00;58461.47;5076110;28;20027;-69
2023/12/24 09:21:58;;;;;;;40.20;6.43;;;;;;;-146.27;95.66;58461.47;5070508;28;20099;-71
2023/12/24 09:25:21;;;;;;;34.15;6.78;;;;;;;-146.27;100.00;58461.47;5071908;28;20032;-71
2023/12/24 09:27:46;;;;;;;33.80;5.45;;;;;;;-146.27;100.00;58461.47;5068652;28;20032;-69
2023/12/24 09:30:13;;;;;;;23.10;6.03;;;;;;;-146.27;100.00;58461.47;5070227;28;20048;-70
2023/12/24 09:32:38;;;;;;;37.78;5.10;;;;;;;-146.27;100.00;58461.47;5074577;28;20433;-71
2023/12/24 09:35:04;;;;;;;25.05;4.05;;;;;;;-146.27;100.00;58461.47;5070444;28;20032;-70
2023/12/24 09:37:31;;;;;;;56.17;5.50;;;;;;;-146.27;100.00;58461.47;5071524;28;20029;-71
2023/12/24 09:40:03;;;;;;;27.77;4.50;;;;;;;-146.27;100.00;58461.47;5066848;28;20419;-71
2023/12/24 09:42:29;;;;;;;36.50;4.97;;;;;;;-146.27;100.00;58461.47;5070643;28;20391;-70
2023/12/24 09:44:55;;;;;;;38.40;6.80;;;;;;;-146.27;100.00;58461.47;5062501;28;20115;-71
2023/12/24 09:47:28;;;;;;;37.70;5.28;;;;;;;-146.27;100.00;58461.47;5066468;28;20123;-71
2023/12/24 09:49:53;;;;;;;44.53;5.93;;;;;;;-146.27;100.00;58461.47;5066587;28;20032;-71
2023/12/24 09:52:21;;;;;;;28.73;5.95;;;;;;;-146.27;100.00;58461.47;5068331;28;20027;-71
2023/12/24 09:54:47;;;;;;;31.20;5.15;;;;;;;-146.27;100.00;58461.47;5066923;28;20076;-71
2023/12/24 09:57:12;;;;;;;47.30;6.68;;;;;;;-146.27;100.00;58461.47;5068864;28;20031;-71
2023/12/24 09:59:38;;;;;;;38.17;5.95;;;;;;;-146.27;100.00;58461.47;5066799;28;20340;-71
2023/12/24 10:02:03;;;;;;;33.50;5.57;;;;;;;-146.27;100.00;58461.47;5061496;28;20110;-71
2023/12/24 10:04:28;;;;;;;42.20;5.65;;;;;;;-146.27;100.00;58461.47;5055237;28;20021;-71
2023/12/24 10:06:55;;;;;;;50.70;8.23;;;;;;;-146.27;100.00;58461.47;5057414;28;20024;-72
2023/12/24 10:09:22;;;;;;;41.72;5.75;;;;;;;-146.27;100.00;58461.47;5066377;28;20039;-71
2023/12/24 10:12:08;;;;;;;45.08;7.70;;;;;;;-146.27;100.00;58461.47;5063840;28;20047;-70
2023/12/24 10:14:34;;;;;;;47.17;6.80;;;;;;;-146.27;100.00;58461.47;5061943;28;20036;-70
2023/12/24 10:17:01;;;;;;;40.70;7.03;;;;;;;-146.27;100.00;58461.47;5062966;28;20070;-71
2023/12/24 10:19:28;;;;;;;38.03;6.25;;;;;;;-146.27;100.00;58461.47;5064914;28;20035;-71
2023/12/24 10:22:04;;;;;;;30.10;4.90;;;;;;;-146.27;100.00;58461.47;5061115;28;20043;-71
2023/12/24 10:24:30;;;;;;;26.52;5.88;;;;;;;-146.27;100.00;58461.47;5064742;28;20526;-70
2023/12/24 10:27:06;;;;;;;37.35;5.82;;;;;;;-146.27;100.00;58461.47;5067406;28;20024;-70
2023/12/24 10:29:33;;;;;;;36.75;6.03;;;;;;;-146.27;100.00;58461.47;5067482;28;20024;-72
2023/12/24 10:31:59;;;;;;;43.47;6.28;;;;;;;-146.27;100.00;58461.47;5064726;28;20055;-72
2023/12/24 10:34:30;;;;;;;29.27;6.28;;;;;;;-146.27;100.00;58461.47;5063182;28;20159;-71
2023/12/24 10:36:58;;;;;;;33.35;4.95;;;;;;;-146.27;100.00;58461.47;5065117;28;20041;-70
2023/12/24 10:39:25;;;;;;;28.75;5.18;;;;;;;-146.27;100.00;58461.47;5071004;28;20024;-70
2023/12/24 10:42:25;;;;;;;24.88;4.78;;;;;;;-146.27;100.00;58461.47;5079083;28;20032;-69
2023/12/24 10:44:50;;;;;;;41.78;5.00;;;;;;;-146.27;100.00;58461.47;5059164;28;20035;-70
2023/12/24 10:47:15;;;;;;;25.60;4.18;;;;;;;-146.27;100.00;58461.47;5062583;28;20029;-69
2023/12/24 10:49:42;;;;;;;22.52;3.80;;;;;;;-146.27;100.00;58461.47;5065997;28;20016;-70
2023/12/24 10:52:07;;;;;;;26.63;4.18;;;;;;;-146.27;95.66;31956.31;5065043;28;20025;-70
2023/12/24 10:54:35;;;;;;;30.40;4.07;;;;;;;-146.27;100.00;58461.47;5065279;28;20052;-70
2023/12/24 10:57:04;;;;;;;28.15;3.28;;;;;;;-146.27;100.00;58461.47;5066970;28;20065;-70
2023/12/24 11:00:06;;;;;;;26.10;4.63;;;;;;;-146.27;95.66;31956.31;5067284;28;20032;-70
2023/12/24 11:02:33;;;;;;;24.08;4.00;;;;;;;-146.27;100.00;58461.47;5067547;28;20024;-71
2023/12/24 11:04:59;;;;;;;27.75;4.68;;;;;;;-146.27;97.24;31896.78;5066029;28;20043;-71
2023/12/24 11:07:33;;;;;;;30.48;4.13;;;;;;;-146.27;100.00;58461.47;5073123;28;20476;-69
2023/12/24 11:10:04;;;;;;;29.45;4.10;;;;;;;-146.27;100.00;58461.47;5065230;28;20191;-82